createdAt,value
2023-03-29T00:02:50.428Z,99270.31
2023-03-29T00:07:54.468Z,99264.59
2023-03-29T00:12:57.448Z,99269.91
2023-03-29T00:18:00.441Z,99274.56
2023-03-29T00:23:03.313Z,99270.00
2023-03-29T00:28:06.285Z,99259.69
2023-03-29T00:33:09.255Z,99248.19
2023-03-29T00:38:12.198Z,99242.88
2023-03-29T00:43:16.073Z,99241.78
2023-03-29T00:48:24.571Z,99243.72
2023-03-29T00:53:36.218Z,99244.91
2023-03-29T00:59:13.894Z,99249.13
2023-03-29T01:04:40.890Z,99243.38
2023-03-29T01:09:48.935Z,99244.13
2023-03-29T01:14:56.747Z,99247.59
2023-03-29T01:20:13.912Z,99248.34
2023-03-29T01:25:53.830Z,99242.63
2023-03-29T01:31:04.258Z,99238.44
2023-03-29T01:36:27.388Z,99225.03
2023-03-29T01:41:42.681Z,99230.00
2023-03-29T01:46:55.372Z,99241.47
2023-03-29T01:52:06.880Z,99237.28
2023-03-29T01:57:12.044Z,99238.00
2023-03-29T02:02:18.176Z,99241.47
2023-03-29T02:07:27.200Z,99231.13
2023-03-29T02:12:30.100Z,99234.97
2023-03-29T02:17:33.104Z,99235.75
2023-03-29T02:22:55.190Z,99233.47
2023-03-29T02:27:58.734Z,99230.38
2023-03-29T02:33:11.029Z,99236.13
2023-03-29T02:38:15.037Z,99230.00
2023-03-29T02:43:19.437Z,99232.28
2023-03-29T02:48:26.690Z,99237.63
2023-03-29T02:53:40.606Z,99236.13
2023-03-29T02:58:43.652Z,99239.19
2023-03-29T03:03:48.301Z,99245.31
2023-03-29T03:08:51.248Z,99245.66
2023-03-29T03:13:54.082Z,99248.31
2023-03-29T03:18:56.988Z,99255.59
2023-03-29T03:24:18.673Z,99249.03
2023-03-29T03:29:22.038Z,99254.00
2023-03-29T03:34:45.095Z,99260.50
2023-03-29T03:40:12.211Z,99267.75
2023-03-29T03:45:16.041Z,99265.00
2023-03-29T03:50:38.474Z,99262.34
2023-03-29T03:55:42.992Z,99256.97
2023-03-29T04:00:51.701Z,99247.41
2023-03-29T04:06:11.939Z,99249.69
2023-03-29T04:11:34.900Z,99247.34
2023-03-29T04:16:56.547Z,99245.00
2023-03-29T04:22:18.268Z,99236.53
2023-03-29T04:27:21.803Z,99239.53
2023-03-29T04:32:25.002Z,99236.06
2023-03-29T04:37:48.561Z,99231.94
2023-03-29T04:42:52.928Z,99223.78
2023-03-29T04:47:59.827Z,99218.50
2023-03-29T04:53:03.797Z,99229.53
2023-03-29T04:58:08.119Z,99213.41
2023-03-29T05:03:14.752Z,99210.97
2023-03-29T05:08:40.107Z,99209.31
2023-03-29T05:13:49.263Z,99203.50
2023-03-29T05:18:52.975Z,99217.50
2023-03-29T05:23:56.156Z,99211.34
2023-03-29T05:29:19.327Z,99212.31
2023-03-29T05:34:28.783Z,99221.41
2023-03-29T05:39:37.888Z,99225.16
2023-03-29T05:44:41.998Z,99227.09
2023-03-29T05:49:52.906Z,99235.31
2023-03-29T05:54:57.935Z,99233.09
2023-03-29T06:00:02.221Z,99228.75
2023-03-29T06:05:23.593Z,99222.75
2023-03-29T06:10:44.284Z,99227.13
2023-03-29T06:16:01.415Z,99223.53
2023-03-29T06:21:05.533Z,99216.63
2023-03-29T06:26:09.004Z,99201.50
2023-03-29T06:31:13.361Z,99206.25
2023-03-29T06:36:17.011Z,99200.09
2023-03-29T06:41:20.168Z,99212.88
2023-03-29T06:46:38.362Z,99212.25
2023-03-29T06:51:43.637Z,99197.78
2023-03-29T06:56:47.551Z,99211.41
2023-03-29T07:01:55.536Z,99200.56
2023-03-29T07:07:22.811Z,99212.91
2023-03-29T07:12:38.274Z,99204.13
2023-03-29T07:17:42.059Z,99189.50
2023-03-29T07:22:47.405Z,99196.22
2023-03-29T07:27:52.318Z,99200.78
2023-03-29T07:32:57.766Z,99191.66
2023-03-29T07:38:09.879Z,99187.81
2023-03-29T07:43:21.925Z,99183.38
2023-03-29T07:48:25.567Z,99166.19
2023-03-29T07:53:34.140Z,99161.38
2023-03-29T07:58:40.881Z,99144.84
2023-03-29T08:03:44.293Z,99132.28
2023-03-29T08:08:47.713Z,99124.50
2023-03-29T08:13:52.954Z,99087.06
2023-03-29T08:19:01.816Z,99110.94
2023-03-29T08:24:21.110Z,99111.72
2023-03-29T08:29:29.529Z,99101.38
2023-03-29T08:34:32.338Z,99103.84
2023-03-29T08:39:51.184Z,99091.19
2023-03-29T08:45:43.916Z,99088.94
2023-03-29T08:50:53.012Z,99089.09
2023-03-29T08:55:59.941Z,99085.03
2023-03-29T09:01:22.958Z,99076.16
2023-03-29T09:06:28.845Z,99065.72
2023-03-29T09:11:47.746Z,99067.81
2023-03-29T09:16:56.420Z,99060.66
2023-03-29T09:22:31.684Z,99050.50
2023-03-29T09:27:50.343Z,99059.25
2023-03-29T09:33:13.962Z,99049.72
2023-03-29T09:38:33.246Z,99056.69
2023-03-29T09:43:41.599Z,99050.00
2023-03-29T09:48:50.964Z,99043.41
2023-03-29T09:53:57.253Z,99039.34
2023-03-29T09:59:28.367Z,99030.84
2023-03-29T10:04:32.229Z,99035.84
2023-03-29T10:09:36.998Z,99030.53
2023-03-29T10:14:54.826Z,99021.38
2023-03-29T10:20:20.064Z,99016.22
2023-03-29T10:25:29.041Z,99019.28
2023-03-29T10:30:37.437Z,99018.78
2023-03-29T10:35:44.387Z,99003.81
2023-03-29T10:41:12.360Z,98999.78
2023-03-29T10:46:21.168Z,99000.28
2023-03-29T10:51:25.554Z,99003.28
2023-03-29T10:56:42.076Z,99001.78
2023-03-29T11:02:00.239Z,98996.81
2023-03-29T11:07:33.046Z,98983.38
2023-03-29T11:12:57.949Z,98981.97
2023-03-29T11:18:12.643Z,98958.34
2023-03-29T11:23:41.701Z,98958.13
2023-03-29T11:28:50.436Z,98952.88
2023-03-29T11:34:18.345Z,98966.84
2023-03-29T11:39:30.594Z,98960.38
2023-03-29T11:44:34.625Z,98961.13
2023-03-29T11:50:13.612Z,98956.28
2023-03-29T11:55:26.722Z,98944.84
2023-03-29T12:00:52.232Z,98946.22
2023-03-29T12:06:07.651Z,98940.25
2023-03-29T12:11:23.113Z,98934.59
2023-03-29T12:16:37.583Z,98938.28
2023-03-29T12:21:42.989Z,98929.94
2023-03-29T12:27:01.716Z,98920.28
2023-03-29T12:32:25.928Z,98917.38
2023-03-29T12:38:04.440Z,98909.84
2023-03-29T12:43:43.581Z,98907.84
2023-03-29T12:48:57.971Z,98904.91
2023-03-29T12:54:17.228Z,98902.22
2023-03-29T12:59:23.175Z,98904.22
2023-03-29T13:05:01.541Z,98905.00
2023-03-29T13:10:10.437Z,98903.25
2023-03-29T13:15:17.074Z,98915.25
2023-03-29T13:20:37.558Z,98908.94
2023-03-29T13:26:01.237Z,98922.50
2023-03-29T13:31:08.459Z,98932.34
2023-03-29T13:36:56.928Z,98929.69
2023-03-29T13:42:19.970Z,98926.22
2023-03-29T13:47:58.254Z,98927.13
2023-03-29T13:53:15.417Z,98941.72
2023-03-29T13:58:41.916Z,98949.09
2023-03-29T14:03:48.764Z,98937.75
2023-03-29T14:08:52.435Z,98944.34
2023-03-29T14:14:15.002Z,98932.47
2023-03-29T14:19:25.008Z,98938.88
2023-03-29T14:24:51.935Z,98938.03
2023-03-29T14:29:54.774Z,98940.06
2023-03-29T14:34:58.258Z,98941.78
2023-03-29T14:40:21.115Z,98948.56
2023-03-29T14:45:43.358Z,98956.03
2023-03-29T14:50:47.131Z,98960.97
2023-03-29T14:55:54.046Z,98971.97
2023-03-29T15:00:57.134Z,98975.22
2023-03-29T15:06:04.058Z,98976.59
2023-03-29T15:11:15.747Z,98987.69
2023-03-29T15:16:22.781Z,98994.69
2023-03-29T15:21:31.968Z,98990.97
2023-03-29T15:26:36.870Z,98984.44
2023-03-29T15:31:42.282Z,98992.22
2023-03-29T15:36:46.794Z,98983.53
2023-03-29T15:41:53.104Z,98984.13
2023-03-29T15:46:58.019Z,98994.66
2023-03-29T15:52:00.887Z,98999.06
2023-03-29T15:57:07.863Z,99012.31
2023-03-29T16:02:21.815Z,99022.03
2023-03-29T16:07:24.716Z,99032.09
2023-03-29T16:12:27.512Z,99025.94
2023-03-29T16:17:30.323Z,99032.66
2023-03-29T16:22:33.219Z,99044.38
2023-03-29T16:27:36.316Z,99058.19
2023-03-29T16:32:39.298Z,99053.63
2023-03-29T16:37:42.374Z,99063.69
2023-03-29T16:42:45.479Z,99047.50
2023-03-29T16:47:49.034Z,99055.41
2023-03-29T16:52:52.797Z,99060.25
2023-03-29T16:57:55.379Z,99059.44
2023-03-29T17:03:02.003Z,99062.25
2023-03-29T17:08:05.109Z,99062.41
2023-03-29T17:13:08.592Z,99063.81
2023-03-29T17:18:12.387Z,99065.06
2023-03-29T17:23:15.693Z,99057.63
2023-03-29T17:28:20.452Z,99061.50
2023-03-29T17:33:26.300Z,99057.97
2023-03-29T17:38:31.407Z,99055.78
2023-03-29T17:43:34.485Z,99055.56
2023-03-29T17:48:38.082Z,99061.69
2023-03-29T17:53:40.975Z,99063.34
2023-03-29T17:58:43.848Z,99049.84
2023-03-29T18:03:48.472Z,99052.03
2023-03-29T18:08:53.374Z,99048.28
2023-03-29T18:14:14.595Z,99046.72
2023-03-29T18:19:17.480Z,99041.00
2023-03-29T18:24:20.299Z,99044.66
2023-03-29T18:29:24.114Z,99043.75
2023-03-29T18:34:45.533Z,99043.41
2023-03-29T18:39:48.991Z,99048.38
2023-03-29T18:44:52.152Z,99039.53
2023-03-29T18:49:55.499Z,99040.91
2023-03-29T18:54:58.396Z,99035.59
2023-03-29T19:05:55.558Z,99025.28
2023-03-29T19:11:02.953Z,99026.06
2023-03-29T19:16:06.362Z,99017.81
2023-03-29T19:21:09.325Z,99018.38
2023-03-29T19:26:12.390Z,99017.31
2023-03-29T19:31:15.359Z,99019.91
2023-03-29T19:36:18.345Z,99009.97
2023-03-29T19:41:21.429Z,99004.66
2023-03-29T19:46:24.431Z,99000.09
2023-03-29T19:51:28.084Z,98996.66
2023-03-29T19:56:30.771Z,98997.81
2023-03-29T20:01:34.097Z,99005.34
2023-03-29T20:06:37.112Z,98994.59
2023-03-29T20:11:58.371Z,98987.47
2023-03-29T20:17:01.194Z,98988.09
2023-03-29T20:22:04.841Z,98981.28
2023-03-29T20:27:07.785Z,98981.06
2023-03-29T20:32:10.956Z,98974.38
2023-03-29T20:37:14.895Z,98973.19
2023-03-29T20:42:18.299Z,98972.34
2023-03-29T20:47:21.374Z,98965.31
2023-03-29T20:52:25.145Z,98963.75
2023-03-29T20:57:29.279Z,98948.84
2023-03-29T21:02:33.310Z,98956.09
2023-03-29T21:07:36.805Z,98953.78
2023-03-29T21:12:40.361Z,98963.81
2023-03-29T21:17:43.206Z,98959.53
2023-03-29T21:22:46.311Z,98960.09
2023-03-29T21:27:49.467Z,98947.91
2023-03-29T21:32:52.534Z,98936.19
2023-03-29T21:37:55.632Z,98936.00
2023-03-29T21:42:58.688Z,98930.75
2023-03-29T21:48:01.775Z,98928.13
2023-03-29T21:53:05.108Z,98935.44
2023-03-29T21:58:08.297Z,98934.25
2023-03-29T22:03:11.280Z,98927.03
2023-03-29T22:08:14.150Z,98924.81
2023-03-29T22:13:16.956Z,98914.38
2023-03-29T22:18:21.040Z,98923.03
2023-03-29T22:23:25.053Z,98925.97
2023-03-29T22:28:27.872Z,98926.66
2023-03-29T22:33:32.891Z,98929.16
2023-03-29T22:38:35.853Z,98934.19
2023-03-29T22:43:39.118Z,98922.53
2023-03-29T22:48:42.169Z,98928.53
2023-03-29T22:53:47.290Z,98923.84
2023-03-29T22:58:50.206Z,98919.97
2023-03-29T23:03:53.085Z,98923.97
2023-03-29T23:08:56.189Z,98902.94
2023-03-29T23:13:59.376Z,98906.06
2023-03-29T23:19:02.903Z,98902.44
2023-03-29T23:24:06.929Z,98895.69
2023-03-29T23:29:09.825Z,98892.78
2023-03-29T23:34:13.695Z,98891.09
2023-03-29T23:39:16.600Z,98891.63
2023-03-29T23:44:19.410Z,98892.16
2023-03-29T23:49:23.002Z,98899.66
2023-03-29T23:54:26.404Z,98905.50
2023-03-29T23:59:31.370Z,98906.81
